createdAt,value
2018-12-21T00:00:25.801Z,9.38
2018-12-21T00:02:55.090Z,9.26
2018-12-21T00:05:24.474Z,9.27
2018-12-21T00:07:53.647Z,9.25
2018-12-21T00:10:23.001Z,9.12
2018-12-21T00:12:52.462Z,8.81
2018-12-21T00:15:21.657Z,8.77
2018-12-21T00:17:51.652Z,8.98
2018-12-21T00:20:20.754Z,9.15
2018-12-21T00:22:50.029Z,9.05
2018-12-21T00:25:19.532Z,9.08
2018-12-21T00:27:48.670Z,9.07
2018-12-21T00:30:22.969Z,9.04
2018-12-21T00:32:58.284Z,9.07
2018-12-21T00:35:32.988Z,8.98
2018-12-21T00:38:07.437Z,8.96
2018-12-21T00:40:42.069Z,8.99
2018-12-21T00:43:43.912Z,9.00
2018-12-21T00:46:32.525Z,8.87
2018-12-21T00:49:08.054Z,8.98
2018-12-21T00:51:37.740Z,9.00
2018-12-21T00:54:07.109Z,8.92
2018-12-21T00:56:36.236Z,9.05
2018-12-21T00:59:05.868Z,9.07
2018-12-21T01:01:35.657Z,8.96
2018-12-21T01:04:04.820Z,8.97
2018-12-21T01:06:34.284Z,8.60
2018-12-21T01:09:04.287Z,9.00
2018-12-21T01:11:33.621Z,8.72
2018-12-21T01:14:02.799Z,8.96
2018-12-21T01:16:32.017Z,9.03
2018-12-21T01:19:01.405Z,9.07
2018-12-21T01:21:38.678Z,9.09
2018-12-21T01:24:03.775Z,9.02
2018-12-21T01:26:33.791Z,9.12
2018-12-21T01:29:03.335Z,8.97
2018-12-21T01:31:32.688Z,9.00
2018-12-21T01:34:02.436Z,9.02
2018-12-21T01:36:31.680Z,9.19
2018-12-21T01:39:00.782Z,9.17
2018-12-21T01:41:30.156Z,9.24
2018-12-21T01:43:59.682Z,9.25
2018-12-21T01:46:29.024Z,9.29
2018-12-21T01:48:58.385Z,9.18
2018-12-21T01:51:27.551Z,9.14
2018-12-21T01:53:56.823Z,9.19
2018-12-21T01:56:26.000Z,9.18
2018-12-21T01:58:55.185Z,9.24
2018-12-21T02:01:24.497Z,9.19
2018-12-21T02:03:53.723Z,9.24
2018-12-21T02:06:23.148Z,9.28
2018-12-21T02:08:52.292Z,9.19
2018-12-21T02:11:21.634Z,9.28
2018-12-21T02:13:50.864Z,9.23
2018-12-21T02:16:21.167Z,9.24
2018-12-21T02:18:50.285Z,9.28
2018-12-21T02:21:19.627Z,9.25
2018-12-21T02:23:48.823Z,9.38
2018-12-21T02:26:17.943Z,9.30
2018-12-21T02:28:47.135Z,9.07
2018-12-21T02:31:16.666Z,9.34
2018-12-21T02:33:46.060Z,9.44
2018-12-21T02:36:15.269Z,9.46
2018-12-21T02:38:44.414Z,9.34
2018-12-21T02:41:13.735Z,9.36
2018-12-21T02:43:43.529Z,9.47
2018-12-21T02:46:12.689Z,9.47
2018-12-21T02:48:41.808Z,9.31
2018-12-21T02:51:11.023Z,9.17
2018-12-21T02:53:40.253Z,9.43
2018-12-21T02:56:09.514Z,9.47
2018-12-21T02:58:39.007Z,9.53
2018-12-21T03:01:08.082Z,9.23
2018-12-21T03:03:37.194Z,9.43
2018-12-21T03:06:06.560Z,9.28
2018-12-21T03:08:35.723Z,9.41
2018-12-21T03:11:04.963Z,9.48
2018-12-21T03:13:34.122Z,9.42
2018-12-21T03:16:03.473Z,9.36
2018-12-21T03:18:32.812Z,9.23
2018-12-21T03:21:02.467Z,9.41
2018-12-21T03:23:31.717Z,9.56
2018-12-21T03:26:00.932Z,9.57
2018-12-21T03:28:30.078Z,9.49
2018-12-21T03:30:59.404Z,9.59
2018-12-21T03:33:28.929Z,9.60
2018-12-21T03:35:58.094Z,9.47
2018-12-21T03:38:27.545Z,9.49
2018-12-21T03:40:56.673Z,9.37
2018-12-21T03:43:26.059Z,9.41
2018-12-21T03:45:55.368Z,9.22
2018-12-21T03:48:24.510Z,9.54
2018-12-21T03:50:54.019Z,9.43
2018-12-21T03:53:23.248Z,9.48
2018-12-21T03:55:52.743Z,9.56
2018-12-21T03:58:21.916Z,9.38
2018-12-21T04:00:51.106Z,9.30
2018-12-21T04:03:20.581Z,9.46
2018-12-21T04:05:49.742Z,9.47
2018-12-21T04:08:18.948Z,9.43
2018-12-21T04:10:48.440Z,9.50
2018-12-21T04:13:17.962Z,9.44
2018-12-21T04:15:47.357Z,9.60
2018-12-21T04:18:16.673Z,9.54
2018-12-21T04:20:46.103Z,9.38
2018-12-21T04:23:15.545Z,9.48
2018-12-21T04:25:44.601Z,9.54
2018-12-21T04:28:13.727Z,9.58
2018-12-21T04:30:42.865Z,9.57
2018-12-21T04:33:12.058Z,9.54
2018-12-21T04:35:41.283Z,9.66
2018-12-21T04:38:10.783Z,9.47
2018-12-21T04:40:39.913Z,9.62
2018-12-21T04:43:09.181Z,9.60
2018-12-21T04:45:38.353Z,9.68
2018-12-21T04:48:07.498Z,9.63
2018-12-21T04:50:36.962Z,8.95
2018-12-21T04:53:06.309Z,9.37
2018-12-21T04:55:35.496Z,9.63
2018-12-21T04:58:04.873Z,9.61
2018-12-21T05:00:34.010Z,9.61
2018-12-21T05:03:03.188Z,9.62
2018-12-21T05:05:32.942Z,9.66
2018-12-21T05:08:02.988Z,9.47
2018-12-21T05:10:33.204Z,9.60
2018-12-21T05:13:02.417Z,9.62
2018-12-21T05:15:31.537Z,9.53
2018-12-21T05:18:00.644Z,9.47
2018-12-21T05:20:30.324Z,9.60
2018-12-21T05:22:59.476Z,9.53
2018-12-21T05:25:28.573Z,9.62
2018-12-21T05:27:58.570Z,9.63
2018-12-21T05:30:27.905Z,9.56
2018-12-21T05:32:57.055Z,9.52
2018-12-21T05:35:26.504Z,9.49
2018-12-21T05:37:55.665Z,9.61
2018-12-21T05:40:24.886Z,9.57
2018-12-21T05:42:54.441Z,9.62
2018-12-21T05:45:23.556Z,9.64
2018-12-21T05:47:53.605Z,9.66
2018-12-21T05:50:22.843Z,9.63
2018-12-21T05:53:00.604Z,9.74
2018-12-21T05:55:23.833Z,9.62
2018-12-21T05:57:52.929Z,9.60
2018-12-21T06:00:22.508Z,9.49
2018-12-21T06:02:51.892Z,9.55
2018-12-21T06:05:21.320Z,9.59
2018-12-21T06:07:50.450Z,9.57
2018-12-21T06:10:20.009Z,9.61
2018-12-21T06:12:49.393Z,9.60
2018-12-21T06:15:18.809Z,9.71
2018-12-21T06:17:48.028Z,9.69
2018-12-21T06:20:17.336Z,9.67
2018-12-21T06:22:46.690Z,9.67
2018-12-21T06:25:16.059Z,9.72
2018-12-21T06:27:45.389Z,9.68
2018-12-21T06:30:14.717Z,9.66
2018-12-21T06:32:43.909Z,9.68
2018-12-21T06:35:13.301Z,9.69
2018-12-21T06:37:42.560Z,9.72
2018-12-21T06:40:11.874Z,9.68
2018-12-21T06:42:41.009Z,9.69
2018-12-21T06:45:10.228Z,9.75
2018-12-21T06:47:39.458Z,9.65
2018-12-21T06:50:09.048Z,9.68
2018-12-21T06:52:38.938Z,9.73
2018-12-21T06:55:08.324Z,9.77
2018-12-21T06:57:37.515Z,9.74
2018-12-21T07:00:09.746Z,9.73
2018-12-21T07:02:39.348Z,9.80
2018-12-21T07:05:08.667Z,9.69
2018-12-21T07:07:38.166Z,9.83
2018-12-21T07:10:10.132Z,9.84
2018-12-21T07:12:39.471Z,9.82
2018-12-21T07:15:09.445Z,9.85
2018-12-21T07:17:38.815Z,9.37
2018-12-21T07:20:09.748Z,9.74
2018-12-21T07:22:39.189Z,9.90
2018-12-21T07:25:09.501Z,9.85
2018-12-21T07:27:38.856Z,9.86
2018-12-21T07:30:11.341Z,9.87
2018-12-21T07:32:41.062Z,9.91
2018-12-21T07:35:14.130Z,9.90
2018-12-21T07:37:43.328Z,9.63
2018-12-21T07:40:12.501Z,9.79
2018-12-21T07:42:42.110Z,9.83
2018-12-21T07:45:11.558Z,9.86
2018-12-21T07:47:40.722Z,9.68
2018-12-21T07:50:10.841Z,9.78
2018-12-21T07:52:40.580Z,9.64
2018-12-21T07:55:11.052Z,9.13
2018-12-21T07:57:40.268Z,9.75
2018-12-21T08:00:12.394Z,9.80
2018-12-21T08:02:41.617Z,9.07
2018-12-21T08:05:11.113Z,9.39
2018-12-21T08:07:40.256Z,9.48
2018-12-21T08:10:15.075Z,9.88
2018-12-21T08:12:44.149Z,9.96
2018-12-21T08:15:13.334Z,10.01
2018-12-21T08:17:42.543Z,9.97
2018-12-21T08:20:11.943Z,9.43
2018-12-21T08:22:41.150Z,9.71
2018-12-21T08:25:10.444Z,9.93
2018-12-21T08:27:39.586Z,9.95
2018-12-21T08:30:10.357Z,10.01
2018-12-21T08:32:39.675Z,10.06
2018-12-21T08:35:08.998Z,10.07
2018-12-21T08:37:38.113Z,9.96
2018-12-21T08:40:09.720Z,9.98
2018-12-21T08:42:39.665Z,10.02
2018-12-21T08:45:10.473Z,10.00
2018-12-21T08:47:40.056Z,9.76
2018-12-21T08:50:11.474Z,10.09
2018-12-21T08:52:40.668Z,10.08
2018-12-21T08:55:11.903Z,10.00
2018-12-21T08:57:41.331Z,9.91
2018-12-21T09:00:13.181Z,10.02
2018-12-21T09:02:42.414Z,10.03
2018-12-21T09:05:11.630Z,9.94
2018-12-21T09:07:40.889Z,9.96
2018-12-21T09:10:11.331Z,10.03
2018-12-21T09:12:40.757Z,10.04
2018-12-21T09:15:15.449Z,10.05
2018-12-21T09:17:44.801Z,10.09
2018-12-21T09:20:14.001Z,9.63
2018-12-21T09:22:43.234Z,10.17
2018-12-21T09:25:12.561Z,10.21
2018-12-21T09:27:41.823Z,10.17
2018-12-21T09:30:14.359Z,10.15
2018-12-21T09:32:43.965Z,9.90
2018-12-21T09:35:14.723Z,10.00
2018-12-21T09:37:44.101Z,10.22
2018-12-21T09:40:13.734Z,10.25
2018-12-21T09:42:43.021Z,10.31
2018-12-21T09:45:12.299Z,10.34
2018-12-21T09:47:41.466Z,10.45
2018-12-21T09:50:11.346Z,10.40
2018-12-21T09:52:40.754Z,10.41
2018-12-21T09:55:09.978Z,10.51
2018-12-21T09:57:39.305Z,10.59
2018-12-21T10:00:11.937Z,10.50
2018-12-21T10:02:41.810Z,10.48
2018-12-21T10:05:15.144Z,10.67
2018-12-21T10:07:44.897Z,10.70
2018-12-21T10:10:14.024Z,10.74
2018-12-21T10:12:43.433Z,10.77
2018-12-21T10:15:12.853Z,10.65
2018-12-21T10:17:42.054Z,10.70
2018-12-21T10:20:11.392Z,10.68
2018-12-21T10:22:41.730Z,10.72
2018-12-21T10:25:11.379Z,10.80
2018-12-21T10:27:40.661Z,10.78
2018-12-21T10:30:11.247Z,10.89
2018-12-21T10:32:40.809Z,10.94
2018-12-21T10:35:09.916Z,10.88
2018-12-21T10:37:39.329Z,9.61
2018-12-21T10:40:09.685Z,10.54
2018-12-21T10:42:38.813Z,10.78
2018-12-21T10:45:08.340Z,10.70
2018-12-21T10:47:37.739Z,10.92
2018-12-21T10:50:10.667Z,10.96
2018-12-21T10:52:39.981Z,11.01
2018-12-21T10:55:09.141Z,10.96
2018-12-21T10:57:38.252Z,10.90
2018-12-21T11:00:11.071Z,10.84
2018-12-21T11:02:40.646Z,10.24
2018-12-21T11:05:09.870Z,10.56
2018-12-21T11:07:39.637Z,10.85
2018-12-21T11:10:11.464Z,10.85
2018-12-21T11:12:40.782Z,10.94
2018-12-21T11:15:10.726Z,10.95
2018-12-21T11:17:39.789Z,10.90
2018-12-21T11:20:09.375Z,10.94
2018-12-21T11:22:38.669Z,10.89
2018-12-21T11:25:11.177Z,10.95
2018-12-21T11:27:40.442Z,10.95
2018-12-21T11:30:09.861Z,11.15
2018-12-21T11:32:39.177Z,10.87
2018-12-21T11:35:08.341Z,11.01
2018-12-21T11:37:37.631Z,11.05
2018-12-21T11:40:07.283Z,10.92
2018-12-21T11:42:36.612Z,10.93
2018-12-21T11:45:08.318Z,10.85
2018-12-21T11:47:37.591Z,10.62
2018-12-21T11:50:09.969Z,10.83
2018-12-21T11:52:39.233Z,10.92
2018-12-21T11:55:08.573Z,10.83
2018-12-21T11:57:38.085Z,10.94
2018-12-21T12:00:09.602Z,10.95
2018-12-21T12:02:39.266Z,10.89
2018-12-21T12:05:08.410Z,11.04
2018-12-21T12:07:37.649Z,11.04
2018-12-21T12:10:07.661Z,10.89
2018-12-21T12:12:36.801Z,10.92
2018-12-21T12:15:07.553Z,10.94
2018-12-21T12:17:37.026Z,10.86
2018-12-21T12:20:07.056Z,11.07
2018-12-21T12:22:36.443Z,11.06
2018-12-21T12:25:06.367Z,11.07
2018-12-21T12:27:36.721Z,10.96
2018-12-21T12:30:08.095Z,11.03
2018-12-21T12:32:37.221Z,10.89
2018-12-21T12:35:07.697Z,10.90
2018-12-21T12:37:36.772Z,10.86
2018-12-21T12:40:07.656Z,10.80
2018-12-21T12:45:15.858Z,10.84
2018-12-21T12:47:45.040Z,10.68
2018-12-21T12:50:14.447Z,10.53
2018-12-21T12:52:43.809Z,10.77
2018-12-21T12:55:13.720Z,10.74
2018-12-21T12:57:43.077Z,10.72
2018-12-21T13:00:13.391Z,10.66
2018-12-21T13:02:43.050Z,10.83
2018-12-21T13:05:12.253Z,10.71
2018-12-21T13:07:41.589Z,10.63
2018-12-21T13:10:11.481Z,10.67
2018-12-21T13:12:40.714Z,10.60
2018-12-21T13:15:12.974Z,10.62
2018-12-21T13:17:42.358Z,10.59
2018-12-21T13:20:11.891Z,10.52
2018-12-21T13:22:41.001Z,10.46
2018-12-21T13:25:11.525Z,10.56
2018-12-21T13:27:41.317Z,10.59
2018-12-21T13:30:12.029Z,10.40
2018-12-21T13:32:41.430Z,10.56
2018-12-21T13:35:10.545Z,10.37
2018-12-21T13:37:39.712Z,10.40
2018-12-21T13:40:12.151Z,10.24
2018-12-21T13:42:41.413Z,10.05
2018-12-21T13:45:11.587Z,9.64
2018-12-21T13:47:41.288Z,9.65
2018-12-21T13:50:14.338Z,10.36
2018-12-21T13:52:43.686Z,10.50
2018-12-21T13:55:20.209Z,10.51
2018-12-21T13:57:44.144Z,10.52
2018-12-21T14:00:13.368Z,10.25
2018-12-21T14:02:42.459Z,10.37
2018-12-21T14:05:11.564Z,10.41
2018-12-21T14:07:41.079Z,10.59
2018-12-21T14:10:12.544Z,10.57
2018-12-21T14:12:41.807Z,10.54
2018-12-21T14:15:11.106Z,10.48
2018-12-21T14:17:40.186Z,10.43
2018-12-21T14:20:11.997Z,10.45
2018-12-21T14:22:41.172Z,10.44
2018-12-21T14:25:10.419Z,10.54
2018-12-21T14:27:39.519Z,10.58
2018-12-21T14:30:10.360Z,10.46
2018-12-21T14:32:39.583Z,10.52
2018-12-21T14:35:08.957Z,10.30
2018-12-21T14:37:38.588Z,10.40
2018-12-21T14:40:08.501Z,10.43
2018-12-21T14:42:37.640Z,10.45
2018-12-21T14:45:07.410Z,10.36
2018-12-21T14:47:36.552Z,10.37
2018-12-21T14:50:07.352Z,10.22
2018-12-21T14:52:36.472Z,10.40
2018-12-21T14:55:07.161Z,10.49
2018-12-21T14:57:36.498Z,10.42
2018-12-21T15:00:10.839Z,10.22
2018-12-21T15:02:40.168Z,10.36
2018-12-21T15:05:10.884Z,10.38
2018-12-21T15:07:41.635Z,10.24
2018-12-21T15:10:11.610Z,10.27
2018-12-21T15:12:41.350Z,10.10
2018-12-21T15:15:10.828Z,10.29
2018-12-21T15:20:18.992Z,10.20
2018-12-21T15:22:48.147Z,10.26
2018-12-21T15:25:19.006Z,10.18
2018-12-21T15:27:48.524Z,10.24
2018-12-21T15:30:18.102Z,10.31
2018-12-21T15:32:47.204Z,10.48
2018-12-21T15:35:16.392Z,10.47
2018-12-21T15:37:45.554Z,10.37
2018-12-21T15:40:14.692Z,10.43
2018-12-21T15:42:44.194Z,10.43
2018-12-21T15:45:13.569Z,10.45
2018-12-21T15:47:42.881Z,10.33
2018-12-21T15:50:13.331Z,10.34
2018-12-21T15:52:43.263Z,10.30
2018-12-21T15:55:12.737Z,10.46
2018-12-21T15:57:41.925Z,10.45
2018-12-21T16:00:16.605Z,10.09
2018-12-21T16:02:50.448Z,10.00
2018-12-21T16:05:19.822Z,10.32
2018-12-21T16:07:49.297Z,10.51
2018-12-21T16:10:18.433Z,10.52
2018-12-21T16:12:47.599Z,10.58
2018-12-21T16:15:17.398Z,10.46
2018-12-21T16:17:46.878Z,10.53
2018-12-21T16:20:16.788Z,10.53
2018-12-21T16:22:46.532Z,10.67
2018-12-21T16:25:17.424Z,10.68
2018-12-21T16:27:46.974Z,10.60
2018-12-21T16:30:16.620Z,10.50
2018-12-21T16:32:46.156Z,10.67
2018-12-21T16:35:15.513Z,10.69
2018-12-21T16:37:44.837Z,10.71
2018-12-21T16:40:13.980Z,10.75
2018-12-21T16:42:43.300Z,10.74
2018-12-21T16:45:12.488Z,10.65
2018-12-21T16:47:41.828Z,10.74
2018-12-21T16:50:14.613Z,10.67
2018-12-21T16:52:44.024Z,10.65
2018-12-21T16:55:13.551Z,10.72
2018-12-21T16:57:42.760Z,10.68
2018-12-21T17:00:14.081Z,10.66
2018-12-21T17:02:43.357Z,10.51
2018-12-21T17:05:12.507Z,10.66
2018-12-21T17:07:41.889Z,10.69
2018-12-21T17:10:18.677Z,10.18
2018-12-21T17:12:48.005Z,10.61
2018-12-21T17:15:17.375Z,10.62
2018-12-21T17:17:46.537Z,10.65
2018-12-21T17:20:16.298Z,10.60
2018-12-21T17:22:45.624Z,10.60
2018-12-21T17:25:15.734Z,10.72
2018-12-21T17:27:45.508Z,10.77
2018-12-21T17:30:14.876Z,10.69
2018-12-21T17:32:44.104Z,10.71
2018-12-21T17:35:13.286Z,10.49
2018-12-21T17:37:44.066Z,10.52
2018-12-21T17:40:13.992Z,10.71
2018-12-21T17:42:44.613Z,10.78
2018-12-21T17:45:17.512Z,10.75
2018-12-21T17:47:47.019Z,10.86
2018-12-21T17:50:16.138Z,10.94
2018-12-21T17:52:45.496Z,9.64
2018-12-21T17:55:14.836Z,10.58
2018-12-21T17:57:44.150Z,10.71
2018-12-21T18:00:18.272Z,10.67
2018-12-21T18:02:52.123Z,10.75
2018-12-21T18:05:22.212Z,10.88
2018-12-21T18:07:51.570Z,10.97
2018-12-21T18:10:20.773Z,10.41
2018-12-21T18:12:49.908Z,10.50
2018-12-21T18:15:19.049Z,10.99
2018-12-21T18:17:48.476Z,11.12
2018-12-21T18:20:17.617Z,10.64
2018-12-21T18:22:46.800Z,11.14
2018-12-21T18:25:24.824Z,11.12
2018-12-21T18:27:56.994Z,11.08
2018-12-21T18:30:31.025Z,11.35
2018-12-21T18:33:10.873Z,11.34
2018-12-21T18:35:40.297Z,11.26
2018-12-21T18:38:15.376Z,11.27
2018-12-21T18:40:44.818Z,11.42
2018-12-21T18:43:14.145Z,11.45
2018-12-21T18:45:43.758Z,11.31
2018-12-21T18:48:13.408Z,11.47
2018-12-21T18:50:42.536Z,11.26
2018-12-21T18:53:12.034Z,11.56
2018-12-21T18:55:42.003Z,11.48
2018-12-21T18:58:11.399Z,11.25
2018-12-21T19:00:40.689Z,11.25
2018-12-21T19:03:10.077Z,11.56
2018-12-21T19:05:39.175Z,11.41
2018-12-21T19:08:08.297Z,11.37
2018-12-21T19:10:37.403Z,11.55
2018-12-21T19:13:06.645Z,11.60
2018-12-21T19:15:35.864Z,11.55
2018-12-21T19:18:05.384Z,11.58
2018-12-21T19:20:34.568Z,11.89
2018-12-21T19:23:03.664Z,11.72
2018-12-21T19:25:34.419Z,11.62
2018-12-21T19:28:04.184Z,10.88
2018-12-21T19:30:33.462Z,11.40
2018-12-21T19:33:02.896Z,11.65
2018-12-21T19:35:34.418Z,11.94
2018-12-21T19:38:03.892Z,11.38
2018-12-21T19:40:33.921Z,11.98
2018-12-21T19:43:03.100Z,11.79
2018-12-21T19:45:32.914Z,11.31
2018-12-21T19:48:02.321Z,11.29
2018-12-21T19:50:31.585Z,11.54
2018-12-21T19:53:02.582Z,11.85
2018-12-21T19:55:46.364Z,11.99
2018-12-21T19:58:15.676Z,11.29
2018-12-21T20:00:45.256Z,11.51
2018-12-21T20:03:14.557Z,11.85
2018-12-21T20:05:43.817Z,11.37
2018-12-21T20:08:13.116Z,11.37
2018-12-21T20:10:43.694Z,11.53
2018-12-21T20:13:13.671Z,11.37
2018-12-21T20:15:42.784Z,11.55
2018-12-21T20:18:11.970Z,11.61
2018-12-21T20:20:41.670Z,11.47
2018-12-21T20:23:11.784Z,11.41
2018-12-21T20:25:41.323Z,11.65
2018-12-21T20:28:10.691Z,11.90
2018-12-21T20:30:39.903Z,11.63
2018-12-21T20:33:09.057Z,11.28
2018-12-21T20:35:38.442Z,10.92
2018-12-21T20:38:07.716Z,10.79
2018-12-21T20:40:37.261Z,10.60
2018-12-21T20:43:07.735Z,11.04
2018-12-21T20:45:38.536Z,11.00
2018-12-21T20:48:07.652Z,10.92
2018-12-21T20:50:37.436Z,11.70
2018-12-21T20:53:06.808Z,11.61
2018-12-21T20:55:36.468Z,11.54
2018-12-21T20:58:37.583Z,11.47
2018-12-21T21:01:07.422Z,11.34
2018-12-21T21:03:37.469Z,11.45
2018-12-21T21:06:06.726Z,10.91
2018-12-21T21:08:36.395Z,11.18
2018-12-21T21:11:05.614Z,12.01
2018-12-21T21:13:34.744Z,11.18
2018-12-21T21:16:03.910Z,11.02
2018-12-21T21:18:34.249Z,11.62
2018-12-21T21:21:06.320Z,11.49
2018-12-21T21:23:36.277Z,11.14
2018-12-21T21:26:05.454Z,11.58
2018-12-21T21:28:35.044Z,11.50
2018-12-21T21:31:04.658Z,11.81
2018-12-21T21:33:34.168Z,11.55
2018-12-21T21:36:03.804Z,11.12
2018-12-21T21:38:33.167Z,11.04
2018-12-21T21:41:02.412Z,11.23
2018-12-21T21:43:31.617Z,11.50
2018-12-21T21:46:01.105Z,11.50
2018-12-21T21:48:30.908Z,11.61
2018-12-21T21:51:00.208Z,11.80
2018-12-21T21:53:29.625Z,12.11
2018-12-21T21:55:59.213Z,11.62
2018-12-21T21:58:28.664Z,11.43
2018-12-21T22:00:57.930Z,11.34
2018-12-21T22:03:27.369Z,11.48
2018-12-21T22:05:57.078Z,11.27
2018-12-21T22:08:26.396Z,11.31
2018-12-21T22:11:01.779Z,12.04
2018-12-21T22:13:28.567Z,11.28
2018-12-21T22:15:57.874Z,11.37
2018-12-21T22:18:27.468Z,12.07
2018-12-21T22:20:57.846Z,12.24
2018-12-21T22:23:27.497Z,12.05
2018-12-21T22:25:57.285Z,11.46
2018-12-21T22:28:26.468Z,11.24
2018-12-21T22:30:56.073Z,11.52
2018-12-21T22:33:26.685Z,11.25
2018-12-21T22:35:56.223Z,11.69
2018-12-21T22:38:25.523Z,11.37
2018-12-21T22:40:55.044Z,11.25
2018-12-21T22:43:24.208Z,10.97
2018-12-21T22:45:53.589Z,11.25
2018-12-21T22:48:23.012Z,11.09
2018-12-21T22:50:52.134Z,11.49
2018-12-21T22:53:21.269Z,10.53
2018-12-21T22:55:51.035Z,11.64
2018-12-21T22:58:20.513Z,11.43
2018-12-21T23:00:49.945Z,11.26
2018-12-21T23:03:19.216Z,11.53
2018-12-21T23:05:48.777Z,11.89
2018-12-21T23:08:18.224Z,11.43
2018-12-21T23:10:47.580Z,11.87
2018-12-21T23:13:16.858Z,11.51
2018-12-21T23:15:46.264Z,11.15
2018-12-21T23:18:15.591Z,11.43
2018-12-21T23:20:44.845Z,11.48
2018-12-21T23:23:14.205Z,11.15
2018-12-21T23:25:43.592Z,11.12
2018-12-21T23:28:12.655Z,11.14
2018-12-21T23:30:42.094Z,11.04
2018-12-21T23:33:11.528Z,11.64
2018-12-21T23:35:40.720Z,11.73
2018-12-21T23:38:09.865Z,11.17
2018-12-21T23:40:39.004Z,11.01
2018-12-21T23:43:08.730Z,11.18
2018-12-21T23:45:38.225Z,10.97
2018-12-21T23:48:07.534Z,11.40
2018-12-21T23:50:36.946Z,11.39
2018-12-21T23:53:06.177Z,11.05
2018-12-21T23:55:35.341Z,11.21
2018-12-21T23:58:04.438Z,11.91
